Time;durP1;ratioP1;P1;durP2;ratioP2;P2;SDS_P1;SDS_P2;PMS_P1;PMS_P2;Temp;Humidity;BMP_temperature;BMP_pressure;BME280_temperature;BME280_humidity;BME280_pressure;Samples;Min_cycle;Max_cycle;Signal;HPM_P1;HPM_P2
2021/11/05 00:01:04;;;;;;;0.63;0.63;;;3.60;99.90;;;;;;5010981;28;20022;-75
2021/11/05 00:03:30;;;;;;;0.20;0.20;;;3.60;99.90;;;;;;5012340;28;20025;-75
2021/11/05 00:05:56;;;;;;;3.10;0.63;;;3.60;99.90;;;;;;5011875;28;20049;-75
2021/11/05 00:08:25;;;;;;;0.30;0.30;;;3.60;99.90;;;;;;5010768;28;20025;-75
2021/11/05 00:10:52;;;;;;;0.30;0.30;;;3.50;99.90;;;;;;5012045;28;20117;-75
2021/11/05 00:13:18;;;;;;;0.77;0.77;;;3.40;99.90;;;;;;5010846;28;20457;-75
2021/11/05 00:15:44;;;;;;;0.40;0.40;;;3.30;99.90;;;;;;5011976;28;20029;-75
2021/11/05 00:18:10;;;;;;;0.30;0.30;;;3.20;99.90;;;;;;5010675;28;20025;-75
2021/11/05 00:20:35;;;;;;;0.30;0.30;;;3.30;99.90;;;;;;4994525;28;20038;-75
2021/11/05 00:23:02;;;;;;;0.35;0.35;;;3.30;99.90;;;;;;5027234;28;20436;-75
2021/11/05 00:25:28;;;;;;;0.30;0.30;;;3.40;99.90;;;;;;5011876;28;20026;-75
2021/11/05 00:27:53;;;;;;;0.30;0.30;;;3.40;99.90;;;;;;5012095;28;20084;-75
2021/11/05 00:30:20;;;;;;;0.30;0.30;;;3.40;99.90;;;;;;5010543;28;20033;-75
2021/11/05 00:32:46;;;;;;;0.40;0.40;;;3.50;99.90;;;;;;5027294;28;20359;-75
2021/11/05 00:35:13;;;;;;;0.30;0.30;;;3.50;99.90;;;;;;5011710;28;20045;-75
2021/11/05 00:37:40;;;;;;;0.38;0.38;;;3.60;99.90;;;;;;5010383;28;20477;-75
2021/11/05 00:40:07;;;;;;;0.30;0.30;;;3.50;99.90;;;;;;4994247;28;20021;-75
2021/11/05 00:42:33;;;;;;;0.25;0.25;;;3.40;99.90;;;;;;5011941;28;20467;-75
2021/11/05 00:44:59;;;;;;;0.30;0.30;;;3.30;99.90;;;;;;5011597;28;20022;-75
2021/11/05 00:47:25;;;;;;;0.30;0.30;;;3.40;99.90;;;;;;5010437;28;20033;-75
2021/11/05 00:49:51;;;;;;;0.30;0.30;;;3.30;99.90;;;;;;5010502;28;20549;-75
2021/11/05 00:52:16;;;;;;;0.30;0.30;;;3.30;99.90;;;;;;5011754;28;20097;-75
2021/11/05 00:54:42;;;;;;;0.30;0.30;;;3.30;99.90;;;;;;5010279;28;20025;-75
2021/11/05 00:57:09;;;;;;;0.45;0.45;;;3.10;99.90;;;;;;5013428;28;20500;-75
2021/11/05 00:59:35;;;;;;;0.50;0.50;;;3.00;99.90;;;;;;5013986;28;20018;-75
2021/11/05 01:02:01;;;;;;;0.60;0.60;;;3.00;99.90;;;;;;4997829;28;20108;-75
2021/11/05 01:04:26;;;;;;;0.30;0.30;;;3.00;99.90;;;;;;5013753;28;20036;-75
2021/11/05 01:06:52;;;;;;;0.30;0.30;;;3.10;99.90;;;;;;5030573;23;20512;-79
2021/11/05 01:09:22;;;;;;;0.40;0.40;;;3.10;99.90;;;;;;5017489;28;20072;-78
2021/11/05 01:11:47;;;;;;;0.30;0.30;;;3.00;99.90;;;;;;5000670;28;20087;-78
2021/11/05 01:14:13;;;;;;;0.40;0.40;;;3.10;99.90;;;;;;5018489;28;20070;-78
2021/11/05 01:16:39;;;;;;;0.32;0.32;;;2.90;99.90;;;;;;5000255;28;20072;-79
2021/11/05 01:19:05;;;;;;;0.30;0.30;;;2.80;99.90;;;;;;5016985;28;20029;-78
2021/11/05 01:21:30;;;;;;;0.38;0.38;;;2.90;99.90;;;;;;5033462;28;20366;-78
2021/11/05 01:23:56;;;;;;;0.30;0.30;;;2.90;99.90;;;;;;5017310;28;20470;-78
2021/11/05 01:26:22;;;;;;;0.40;0.40;;;2.80;99.90;;;;;;5018370;28;20022;-79
2021/11/05 01:28:48;;;;;;;0.30;0.30;;;2.90;99.90;;;;;;5016687;28;20028;-79
2021/11/05 01:31:14;;;;;;;0.32;0.32;;;2.80;99.90;;;;;;5001774;28;20025;-79
2021/11/05 01:33:40;;;;;;;0.77;0.77;;;2.80;99.90;;;;;;5019787;28;20033;-79
2021/11/05 01:36:05;;;;;;;0.40;0.40;;;2.80;99.90;;;;;;5019167;28;20033;-78
2021/11/05 01:38:31;;;;;;;0.20;0.20;;;2.90;99.90;;;;;;5035262;28;20026;-79
2021/11/05 01:40:57;;;;;;;0.35;0.35;;;3.00;99.90;;;;;;5018608;28;20025;-79
2021/11/05 01:43:23;;;;;;;0.50;0.50;;;3.00;99.90;;;;;;5020456;28;20552;-78
2021/11/05 01:45:49;;;;;;;0.63;0.63;;;2.90;99.90;;;;;;5018057;28;20433;-79
2021/11/05 01:48:15;;;;;;;0.30;0.30;;;2.80;99.90;;;;;;5020030;28;20100;-79
2021/11/05 01:50:41;;;;;;;0.30;0.30;;;3.00;99.90;;;;;;5019687;28;20037;-80
2021/11/05 01:53:08;;;;;;;0.68;0.68;;;3.20;99.90;;;;;;5018713;28;20033;-79
2021/11/05 01:55:34;;;;;;;0.30;0.30;;;3.20;99.90;;;;;;5019472;28;20108;-79
2021/11/05 01:58:00;;;;;;;0.30;0.30;;;3.20;99.90;;;;;;5001724;28;20049;-79
2021/11/05 02:00:28;;;;;;;0.30;0.30;;;3.20;99.90;;;;;;5019166;28;20022;-79
2021/11/05 02:02:54;;;;;;;0.38;0.38;;;3.10;99.90;;;;;;5020948;28;20385;-80
2021/11/05 02:05:20;;;;;;;0.30;0.30;;;3.20;99.90;;;;;;5019808;28;20113;-80
2021/11/05 02:07:56;;;;;;;0.30;0.30;;;3.20;99.90;;;;;;5019690;28;20034;-78
2021/11/05 02:10:26;;;;;;;0.30;0.30;;;3.20;99.90;;;;;;5020120;28;20448;-79
2021/11/05 02:12:53;;;;;;;0.30;0.30;;;3.20;99.90;;;;;;5019364;28;20037;-79
2021/11/05 02:15:19;;;;;;;0.38;0.38;;;3.20;99.90;;;;;;5019969;28;20030;-79
2021/11/05 02:17:46;;;;;;;0.35;0.35;;;3.20;99.90;;;;;;5020321;28;20022;-79
2021/11/05 02:20:14;;;;;;;0.32;0.32;;;3.00;99.90;;;;;;5017844;28;20074;-79
2021/11/05 02:22:41;;;;;;;0.30;0.30;;;2.90;99.90;;;;;;5018990;28;20072;-78
2021/11/05 02:25:09;;;;;;;0.30;0.30;;;3.00;99.90;;;;;;5019406;28;20025;-78
2021/11/05 02:27:36;;;;;;;0.35;0.35;;;3.00;99.90;;;;;;5018091;28;20390;-79
2021/11/05 02:30:06;;;;;;;0.40;0.40;;;3.10;99.90;;;;;;5017890;28;20053;-79
2021/11/05 02:32:31;;;;;;;0.40;0.40;;;3.00;99.90;;;;;;5018748;28;20052;-79
2021/11/05 02:34:57;;;;;;;0.47;0.47;;;2.80;99.90;;;;;;5001070;28;20030;-79
2021/11/05 02:37:28;;;;;;;0.40;0.40;;;2.70;99.90;;;;;;5000670;28;20032;-78
2021/11/05 02:39:55;;;;;;;0.40;0.40;;;2.70;99.90;;;;;;5001121;28;20026;-78
2021/11/05 02:42:21;;;;;;;0.30;0.30;;;2.70;99.90;;;;;;5016806;28;20018;-79
2021/11/05 02:44:48;;;;;;;0.30;0.30;;;2.70;99.90;;;;;;5016696;28;20022;-79
2021/11/05 02:47:20;;;;;;;0.40;0.40;;;2.80;99.90;;;;;;5016914;28;20030;-78
2021/11/05 02:49:46;;;;;;;0.30;0.30;;;2.70;99.90;;;;;;5018018;28;20102;-78
2021/11/05 02:52:14;;;;;;;0.32;0.32;;;2.70;99.90;;;;;;5017500;28;20148;-79
2021/11/05 02:54:41;;;;;;;0.30;0.30;;;2.70;99.90;;;;;;5015599;28;20030;-78
2021/11/05 02:57:08;;;;;;;0.40;0.40;;;2.60;99.90;;;;;;5017063;28;20022;-79
2021/11/05 02:59:34;;;;;;;0.30;0.30;;;2.60;99.90;;;;;;5016941;28;20033;-79
2021/11/05 03:02:08;;;;;;;0.40;0.40;;;2.60;99.90;;;;;;5016121;28;20030;-79
2021/11/05 03:04:34;;;;;;;0.35;0.35;;;2.60;99.90;;;;;;5015926;28;20452;-78
2021/11/05 03:07:05;;;;;;;0.30;0.30;;;2.80;99.90;;;;;;5016621;28;20120;-79
2021/11/05 03:09:40;;;;;;;0.30;0.30;;;2.80;99.90;;;;;;5017967;28;20022;-78
2021/11/05 03:12:08;;;;;;;0.43;0.43;;;2.90;99.90;;;;;;5000863;28;20036;-78
2021/11/05 03:14:34;;;;;;;0.30;0.30;;;2.80;99.90;;;;;;5018246;28;20559;-80
2021/11/05 03:17:00;;;;;;;0.30;0.30;;;2.80;99.90;;;;;;5018131;28;20022;-79
2021/11/05 03:19:26;;;;;;;0.30;0.30;;;2.90;99.90;;;;;;5017465;28;20026;-79
2021/11/05 03:21:52;;;;;;;0.40;0.40;;;2.80;99.90;;;;;;5019053;28;20045;-79
2021/11/05 03:24:18;;;;;;;2.83;2.63;;;2.90;99.90;;;;;;5018277;28;20033;-78
2021/11/05 03:26:45;;;;;;;0.32;0.32;;;3.10;99.90;;;;;;5001281;28;20161;-78
2021/11/05 03:29:12;;;;;;;0.30;0.30;;;3.10;99.90;;;;;;5016761;28;20493;-79
2021/11/05 03:31:37;;;;;;;0.30;0.30;;;3.20;99.90;;;;;;5016762;28;20508;-78
2021/11/05 03:34:04;;;;;;;0.40;0.40;;;3.30;99.90;;;;;;5017760;28;20022;-78
2021/11/05 03:36:29;;;;;;;0.30;0.30;;;3.20;99.90;;;;;;5016528;28;20030;-78
2021/11/05 03:38:55;;;;;;;0.30;0.30;;;3.00;99.90;;;;;;5016729;28;20261;-79
2021/11/05 03:41:21;;;;;;;0.30;0.30;;;2.80;99.90;;;;;;5016275;28;20057;-78
2021/11/05 03:43:48;;;;;;;0.57;0.45;;;2.70;99.90;;;;;;5016411;28;20026;-79
2021/11/05 03:46:14;;;;;;;0.55;0.55;;;2.70;99.90;;;;;;5017439;28;20105;-79
2021/11/05 03:48:40;;;;;;;0.30;0.30;;;2.60;99.90;;;;;;4999565;28;20413;-79
2021/11/05 03:51:08;;;;;;;0.40;0.40;;;2.60;99.90;;;;;;5017859;28;20033;-79
2021/11/05 03:53:34;;;;;;;0.40;0.40;;;2.70;99.90;;;;;;5017829;28;20032;-79
2021/11/05 03:56:00;;;;;;;0.30;0.30;;;2.80;99.90;;;;;;5017439;28;20022;-78
2021/11/05 03:58:26;;;;;;;0.30;0.30;;;2.90;99.90;;;;;;5016793;28;20030;-79
2021/11/05 04:00:53;;;;;;;0.30;0.30;;;3.10;99.90;;;;;;5017415;28;20025;-79
2021/11/05 04:03:20;;;;;;;0.30;0.30;;;3.10;99.90;;;;;;5017982;28;20018;-78
2021/11/05 04:05:46;;;;;;;0.30;0.30;;;3.10;99.90;;;;;;5023658;28;20022;-80
2021/11/05 04:08:12;;;;;;;0.30;0.30;;;3.10;99.90;;;;;;5024535;28;20489;-79
2021/11/05 04:10:38;;;;;;;0.32;0.32;;;3.00;99.90;;;;;;5008235;28;20026;-80
2021/11/05 04:13:04;;;;;;;0.20;0.20;;;3.00;99.90;;;;;;5025595;28;20188;-80
2021/11/05 04:15:31;;;;;;;0.30;0.30;;;2.90;99.90;;;;;;5025896;28;20462;-80
2021/11/05 04:17:56;;;;;;;1.08;0.73;;;3.00;99.90;;;;;;5024784;28;20421;-80
2021/11/05 04:20:22;;;;;;;0.30;0.30;;;2.90;99.90;;;;;;5024379;28;20110;-80
2021/11/05 04:22:48;;;;;;;0.35;0.35;;;2.80;99.90;;;;;;5023666;28;20040;-79
2021/11/05 04:25:14;;;;;;;0.30;0.30;;;2.60;99.90;;;;;;5023573;28;20026;-79
2021/11/05 04:27:40;;;;;;;0.32;0.32;;;2.60;99.90;;;;;;5023637;28;20033;-80
2021/11/05 04:30:08;;;;;;;0.30;0.30;;;2.60;99.90;;;;;;5024401;28;20029;-79
2021/11/05 04:32:34;;;;;;;0.40;0.40;;;2.60;99.90;;;;;;5028749;28;20026;-79
2021/11/05 04:35:00;;;;;;;0.30;0.30;;;2.60;99.90;;;;;;5028000;28;20032;-80
2021/11/05 04:37:26;;;;;;;0.30;0.30;;;2.70;99.90;;;;;;5026830;28;20030;-79
2021/11/05 04:39:51;;;;;;;0.30;0.30;;;2.70;99.90;;;;;;5029240;28;20045;-80
2021/11/05 04:42:17;;;;;;;0.55;0.55;;;2.70;99.90;;;;;;5028549;28;20018;-79
2021/11/05 04:44:43;;;;;;;0.32;0.32;;;2.70;99.90;;;;;;5027446;28;20045;-80
2021/11/05 04:47:09;;;;;;;0.40;0.40;;;2.60;99.90;;;;;;5029914;28;20022;-80
2021/11/05 04:49:35;;;;;;;0.30;0.30;;;2.60;99.90;;;;;;5028328;28;20026;-79
2021/11/05 04:52:00;;;;;;;0.40;0.40;;;2.70;99.90;;;;;;5029593;28;20090;-80
2021/11/05 04:54:26;;;;;;;0.30;0.30;;;2.70;99.90;;;;;;5028292;28;20084;-80
2021/11/05 04:56:52;;;;;;;0.40;0.40;;;2.60;99.90;;;;;;5027599;28;20030;-80
2021/11/05 04:59:19;;;;;;;0.40;0.40;;;2.70;99.90;;;;;;5043579;28;20029;-79
2021/11/05 05:01:46;;;;;;;0.30;0.30;;;2.50;99.90;;;;;;5028254;28;20028;-80
2021/11/05 05:04:12;;;;;;;0.47;0.47;;;2.60;99.90;;;;;;5010886;28;20030;-80
2021/11/05 05:06:38;;;;;;;0.40;0.40;;;2.60;99.90;;;;;;5026134;28;20040;-80
2021/11/05 05:09:04;;;;;;;0.30;0.30;;;2.60;99.90;;;;;;5026043;28;20344;-80
2021/11/05 05:11:31;;;;;;;0.40;0.40;;;2.50;99.90;;;;;;5026966;28;20022;-79
2021/11/05 05:13:57;;;;;;;0.40;0.40;;;2.50;99.90;;;;;;5009932;28;20033;-80
2021/11/05 05:16:22;;;;;;;0.40;0.40;;;2.50;99.90;;;;;;5027470;28;20018;-80
2021/11/05 05:18:48;;;;;;;0.32;0.32;;;2.50;99.90;;;;;;5027159;28;20433;-80
2021/11/05 05:21:15;;;;;;;0.30;0.30;;;2.40;99.90;;;;;;5025718;28;20022;-79
2021/11/05 05:23:41;;;;;;;0.50;0.50;;;2.30;99.90;;;;;;5026789;28;20018;-80
2021/11/05 05:26:07;;;;;;;0.30;0.30;;;2.30;99.90;;;;;;5026224;28;20022;-79
2021/11/05 05:28:33;;;;;;;0.50;0.50;;;2.40;99.90;;;;;;5025790;28;20026;-80
2021/11/05 05:31:03;;;;;;;0.70;0.70;;;2.30;99.90;;;;;;5027048;28;20029;-79
2021/11/05 05:33:30;;;;;;;0.60;0.60;;;2.10;99.90;;;;;;5025496;28;20025;-80
2021/11/05 05:35:55;;;;;;;0.40;0.40;;;2.10;99.90;;;;;;5026648;28;20026;-81
2021/11/05 05:38:21;;;;;;;0.32;0.32;;;2.30;99.90;;;;;;5027181;28;20381;-80
2021/11/05 05:40:47;;;;;;;0.60;0.60;;;2.40;99.90;;;;;;5026025;28;20392;-80
2021/11/05 05:43:14;;;;;;;0.30;0.30;;;2.50;99.90;;;;;;5008600;28;20030;-80
2021/11/05 05:45:40;;;;;;;0.40;0.40;;;2.60;99.90;;;;;;5027208;28;20060;-80
2021/11/05 05:48:05;;;;;;;0.30;0.30;;;2.60;99.90;;;;;;5027873;28;20028;-80
2021/11/05 05:50:31;;;;;;;0.30;0.30;;;2.70;99.90;;;;;;5028750;28;20097;-80
2021/11/05 05:52:57;;;;;;;0.40;0.40;;;2.60;99.90;;;;;;5026844;28;20030;-80
2021/11/05 05:55:26;;;;;;;0.40;0.40;;;2.60;99.90;;;;;;5027938;28;20058;-80
2021/11/05 05:57:52;;;;;;;0.32;0.32;;;2.60;99.90;;;;;;5028576;28;20022;-79
2021/11/05 06:00:18;;;;;;;0.30;0.30;;;2.50;99.90;;;;;;5028377;28;20026;-80
2021/11/05 06:02:45;;;;;;;0.30;0.30;;;2.50;99.90;;;;;;5026604;28;20076;-80
2021/11/05 06:05:11;;;;;;;0.68;0.68;;;2.50;99.90;;;;;;5026777;28;20037;-80
2021/11/05 06:07:37;;;;;;;0.30;0.30;;;2.50;99.90;;;;;;5010571;28;20038;-79
2021/11/05 06:10:07;;;;;;;0.30;0.30;;;2.50;99.90;;;;;;5009829;28;20032;-80
2021/11/05 06:12:33;;;;;;;0.40;0.40;;;2.50;99.90;;;;;;5026009;28;20025;-80
2021/11/05 06:14:59;;;;;;;0.30;0.30;;;2.50;99.90;;;;;;5026708;28;20532;-80
2021/11/05 06:17:25;;;;;;;0.30;0.30;;;2.50;99.90;;;;;;5028161;28;20037;-80
2021/11/05 06:19:51;;;;;;;0.30;0.30;;;2.50;99.90;;;;;;5026229;28;20022;-80
2021/11/05 06:22:19;;;;;;;0.30;0.30;;;2.40;99.90;;;;;;5027524;28;20512;-80
2021/11/05 06:24:45;;;;;;;0.30;0.30;;;2.40;99.90;;;;;;5008988;28;20032;-80
2021/11/05 06:27:12;;;;;;;0.30;0.30;;;2.50;99.90;;;;;;5024976;28;20454;-79
2021/11/05 06:29:38;;;;;;;0.30;0.30;;;2.60;99.90;;;;;;5024888;28;20026;-80
2021/11/05 06:32:05;;;;;;;0.40;0.40;;;2.70;99.90;;;;;;5025316;28;20644;-79
2021/11/05 06:34:30;;;;;;;0.63;0.63;;;2.60;99.90;;;;;;5024347;28;20061;-80
2021/11/05 06:36:56;;;;;;;0.40;0.40;;;2.40;99.90;;;;;;5041687;28;20026;-79
2021/11/05 06:39:22;;;;;;;0.30;0.30;;;2.40;99.90;;;;;;5024351;28;20026;-80
2021/11/05 06:41:48;;;;;;;0.60;0.60;;;2.40;99.90;;;;;;5008718;28;20512;-79
2021/11/05 06:44:14;;;;;;;0.35;0.35;;;2.50;99.90;;;;;;5026159;28;20073;-80
2021/11/05 06:46:40;;;;;;;0.30;0.30;;;2.60;99.90;;;;;;5024446;28;20037;-80
2021/11/05 06:49:05;;;;;;;0.30;0.30;;;2.60;99.90;;;;;;5025025;28;20026;-80
2021/11/05 06:51:31;;;;;;;0.30;0.30;;;2.70;99.90;;;;;;5025496;28;20018;-80
2021/11/05 06:53:58;;;;;;;0.40;0.40;;;2.90;99.90;;;;;;5026430;28;20052;-80
2021/11/05 06:56:24;;;;;;;0.30;0.30;;;3.00;99.90;;;;;;5008693;28;20108;-80
2021/11/05 06:58:50;;;;;;;0.40;0.40;;;3.00;99.90;;;;;;5025086;28;20038;-80
2021/11/05 07:01:18;;;;;;;0.30;0.30;;;2.90;99.90;;;;;;5024755;28;20046;-80
2021/11/05 07:03:43;;;;;;;0.40;0.40;;;3.00;99.90;;;;;;5023001;28;20064;-80
2021/11/05 07:06:10;;;;;;;0.30;0.30;;;3.10;99.90;;;;;;5030740;28;20024;-80
2021/11/05 07:08:36;;;;;;;0.20;0.20;;;3.20;99.90;;;;;;5008197;28;20094;-80
2021/11/05 07:11:02;;;;;;;0.40;0.40;;;3.00;99.90;;;;;;5025569;28;20030;-80
2021/11/05 07:13:28;;;;;;;0.57;0.57;;;3.10;99.90;;;;;;5039148;28;20029;-80
2021/11/05 07:15:55;;;;;;;0.30;0.30;;;3.00;99.90;;;;;;5043094;28;20033;-80
2021/11/05 07:18:21;;;;;;;2.55;1.42;;;2.90;99.90;;;;;;5026661;28;20421;-79
2021/11/05 07:20:48;;;;;;;0.30;0.30;;;3.00;99.90;;;;;;5060654;28;20022;-80
2021/11/05 07:23:15;;;;;;;0.30;0.30;;;3.00;99.90;;;;;;5027271;28;20056;-80
2021/11/05 07:25:41;;;;;;;0.30;0.30;;;3.20;99.90;;;;;;5042844;28;20068;-80
2021/11/05 07:28:08;;;;;;;0.30;0.30;;;3.30;99.90;;;;;;5043846;28;20035;-80
2021/11/05 07:30:34;;;;;;;0.30;0.30;;;3.40;99.90;;;;;;5045110;28;20092;-79
2021/11/05 07:33:00;;;;;;;0.30;0.30;;;3.50;99.90;;;;;;5026439;28;20462;-80
2021/11/05 07:35:27;;;;;;;0.60;0.60;;;3.50;99.90;;;;;;5024460;28;20060;-80
2021/11/05 07:37:52;;;;;;;0.40;0.40;;;3.50;99.90;;;;;;5022690;28;20081;-79
2021/11/05 07:40:19;;;;;;;0.40;0.40;;;3.30;99.90;;;;;;5024689;28;20050;-80
2021/11/05 07:42:46;;;;;;;0.30;0.30;;;3.30;99.90;;;;;;5039458;28;20026;-80
2021/11/05 07:45:14;;;;;;;0.30;0.30;;;3.40;99.90;;;;;;5023819;28;20056;-80
2021/11/05 07:47:40;;;;;;;0.30;0.30;;;3.60;99.90;;;;;;5026483;28;20022;-80
2021/11/05 07:50:08;;;;;;;6.22;0.68;;;3.80;99.90;;;;;;5029340;28;20044;-80
2021/11/05 07:52:33;;;;;;;0.22;0.22;;;4.00;99.90;;;;;;5024051;28;20037;-77
2021/11/05 07:55:00;;;;;;;0.30;0.30;;;4.00;99.90;;;;;;5025033;28;20022;-80
2021/11/05 07:57:26;;;;;;;0.35;0.35;;;4.20;99.90;;;;;;5020487;28;20026;-80
2021/11/05 07:59:52;;;;;;;0.30;0.30;;;4.10;99.90;;;;;;5021854;28;20116;-79
2021/11/05 08:02:18;;;;;;;0.40;0.40;;;4.00;99.90;;;;;;5039029;28;20068;-80
2021/11/05 08:04:44;;;;;;;0.35;0.35;;;4.10;99.90;;;;;;5022816;28;20041;-80
2021/11/05 08:07:10;;;;;;;0.30;0.30;;;4.20;99.90;;;;;;5004868;28;20040;-80
2021/11/05 08:09:36;;;;;;;0.30;0.30;;;4.20;99.90;;;;;;5022830;28;20029;-80
2021/11/05 08:12:02;;;;;;;0.30;0.30;;;4.10;99.90;;;;;;5006704;28;20032;-80
2021/11/05 08:14:28;;;;;;;0.50;0.50;;;4.20;99.90;;;;;;5008255;28;20442;-80
2021/11/05 08:16:54;;;;;;;0.30;0.30;;;4.20;99.90;;;;;;5007359;28;20048;-80
2021/11/05 08:19:19;;;;;;;0.30;0.30;;;4.20;99.90;;;;;;5007427;28;20497;-81
2021/11/05 08:21:45;;;;;;;1.05;1.05;;;4.40;99.90;;;;;;5006244;28;20021;-80
2021/11/05 08:24:11;;;;;;;0.30;0.30;;;4.40;99.90;;;;;;5003881;28;20398;-81
2021/11/05 08:26:37;;;;;;;0.30;0.30;;;4.40;99.90;;;;;;5022712;28;20045;-79
2021/11/05 08:29:05;;;;;;;0.30;0.30;;;4.30;99.90;;;;;;5006668;28;20029;-80
2021/11/05 08:31:32;;;;;;;0.30;0.30;;;4.50;99.90;;;;;;5009944;28;20037;-81
2021/11/05 08:33:58;;;;;;;1.55;1.30;;;4.80;99.90;;;;;;5027304;28;20124;-81
2021/11/05 08:36:25;;;;;;;0.50;0.50;;;4.80;99.90;;;;;;5027464;28;20034;-81
2021/11/05 08:38:52;;;;;;;0.88;0.77;;;4.70;99.90;;;;;;5026039;28;20055;-78
2021/11/05 08:41:19;;;;;;;0.30;0.30;;;4.90;99.90;;;;;;5026985;28;20025;-78
2021/11/05 08:43:51;;;;;;;2.15;0.70;;;5.00;99.90;;;;;;5026631;28;20041;-78
2021/11/05 08:46:20;;;;;;;0.22;0.22;;;5.00;99.90;;;;;;5032764;28;20094;-78
2021/11/05 08:48:51;;;;;;;0.40;0.40;;;5.20;99.90;;;;;;5008689;28;20026;-78
2021/11/05 08:51:17;;;;;;;0.77;0.77;;;5.30;99.90;;;;;;5023568;28;20030;-79
2021/11/05 08:53:43;;;;;;;0.40;0.40;;;5.30;99.90;;;;;;5025435;28;20026;-79
2021/11/05 08:56:11;;;;;;;0.30;0.30;;;5.40;99.90;;;;;;5027367;28;20057;-78
2021/11/05 08:58:37;;;;;;;0.20;0.20;;;5.50;99.90;;;;;;5006924;28;20030;-77
2021/11/05 09:01:05;;;;;;;0.30;0.30;;;5.70;99.90;;;;;;5011130;28;20057;-77
2021/11/05 09:03:31;;;;;;;0.20;0.20;;;5.80;99.90;;;;;;5010885;28;20050;-76
2021/11/05 09:05:56;;;;;;;0.30;0.30;;;5.90;99.90;;;;;;5009581;28;20030;-77
2021/11/05 09:08:22;;;;;;;1.40;1.30;;;5.90;99.90;;;;;;5009502;28;20025;-77
2021/11/05 09:10:48;;;;;;;6.95;1.83;;;6.10;99.90;;;;;;5009586;28;20026;-78
2021/11/05 09:13:14;;;;;;;0.50;0.50;;;6.10;99.90;;;;;;5009424;28;20037;-78
2021/11/05 09:15:40;;;;;;;2.38;0.80;;;6.10;99.90;;;;;;5013754;28;20022;-80
2021/11/05 09:18:08;;;;;;;0.30;0.30;;;5.90;99.90;;;;;;5007910;28;20049;-80
2021/11/05 09:20:35;;;;;;;0.40;0.40;;;5.90;99.90;;;;;;5028581;28;20053;-79
2021/11/05 09:23:00;;;;;;;0.30;0.30;;;5.90;99.90;;;;;;5027272;28;20082;-80
2021/11/05 09:25:26;;;;;;;15.07;0.88;;;5.90;99.90;;;;;;5026470;28;20029;-80
2021/11/05 09:27:52;;;;;;;0.30;0.30;;;5.90;99.90;;;;;;5027841;28;20462;-80
2021/11/05 09:30:21;;;;;;;2.50;1.85;;;6.00;99.90;;;;;;5027245;28;20048;-80
2021/11/05 09:32:48;;;;;;;0.38;0.38;;;6.10;99.90;;;;;;5021227;28;20022;-77
2021/11/05 09:35:14;;;;;;;0.30;0.30;;;6.20;99.90;;;;;;5013142;28;20067;-78
2021/11/05 09:37:40;;;;;;;0.47;0.35;;;6.30;99.90;;;;;;4996925;28;20034;-78
2021/11/05 09:40:10;;;;;;;12.40;0.85;;;6.50;99.90;;;;;;5013933;28;20026;-77
2021/11/05 09:42:44;;;;;;;2.92;0.70;;;6.60;99.90;;;;;;5016306;28;20030;-80
2021/11/05 09:45:10;;;;;;;0.47;0.47;;;6.60;99.90;;;;;;5026407;28;20094;-80
2021/11/05 09:47:38;;;;;;;0.30;0.30;;;6.50;99.90;;;;;;5027545;28;20052;-80
2021/11/05 09:50:05;;;;;;;0.20;0.20;;;6.60;99.90;;;;;;5026459;28;20026;-80
2021/11/05 09:52:31;;;;;;;0.35;0.35;;;6.50;99.90;;;;;;5009614;28;20097;-79
2021/11/05 09:54:59;;;;;;;0.20;0.20;;;6.60;99.90;;;;;;5026194;28;20030;-79
2021/11/05 09:57:25;;;;;;;0.30;0.30;;;6.60;99.90;;;;;;5026758;28;20026;-78
2021/11/05 09:59:51;;;;;;;0.65;0.40;;;6.70;99.90;;;;;;5024396;28;20030;-79
2021/11/05 10:02:17;;;;;;;0.20;0.20;;;6.70;99.90;;;;;;5028203;28;20094;-80
2021/11/05 10:04:44;;;;;;;0.30;0.30;;;6.70;99.90;;;;;;5025761;28;20089;-80
2021/11/05 10:07:11;;;;;;;0.20;0.20;;;6.90;99.90;;;;;;5014305;28;20036;-79
2021/11/05 10:09:50;;;;;;;0.70;0.70;;;7.00;99.90;;;;;;5013658;28;20022;-78
2021/11/05 10:12:25;;;;;;;0.20;0.20;;;6.90;99.90;;;;;;5027488;28;20446;-79
2021/11/05 10:15:00;;;;;;;1.08;0.90;;;6.90;99.90;;;;;;5025042;28;20101;-79
2021/11/05 10:17:26;;;;;;;0.55;0.52;;;6.90;99.90;;;;;;5005303;28;20057;-79
2021/11/05 10:19:59;;;;;;;0.30;0.30;;;6.90;99.90;;;;;;5026174;28;20409;-79
2021/11/05 10:22:49;;;;;;;0.43;0.43;;;6.90;99.90;;;;;;5026024;28;20026;-80
2021/11/05 10:25:26;;;;;;;0.55;0.52;;;6.70;99.90;;;;;;5022751;28;20097;-79
2021/11/05 10:28:08;;;;;;;0.20;0.20;;;6.70;99.90;;;;;;5025183;28;20028;-80
2021/11/05 10:30:48;;;;;;;0.20;0.20;;;6.80;99.90;;;;;;5009891;28;20029;-79
2021/11/05 10:33:30;;;;;;;0.30;0.30;;;6.90;99.90;;;;;;5010551;28;20042;-80
2021/11/05 10:36:00;;;;;;;0.80;0.80;;;7.20;99.90;;;;;;5028892;28;20026;-80
2021/11/05 10:38:27;;;;;;;0.30;0.30;;;7.20;99.90;;;;;;5010682;28;20030;-80
2021/11/05 10:40:56;;;;;;;0.20;0.20;;;7.30;99.90;;;;;;5012078;28;20547;-78
2021/11/05 10:43:38;;;;;;;0.20;0.20;;;7.50;99.90;;;;;;5012560;28;20076;-79
2021/11/05 10:46:06;;;;;;;0.35;0.35;;;7.50;99.90;;;;;;5025817;28;20022;-79
2021/11/05 10:48:37;;;;;;;1.27;1.05;;;7.50;99.90;;;;;;5010371;28;20034;-79
2021/11/05 10:51:05;;;;;;;0.30;0.30;;;7.50;99.90;;;;;;5024085;28;20022;-78
2021/11/05 10:53:40;;;;;;;0.20;0.20;;;7.80;99.90;;;;;;5011912;28;20510;-78
2021/11/05 10:56:13;;;;;;;0.40;0.40;;;7.80;99.90;;;;;;5010923;28;20083;-77
2021/11/05 10:58:40;;;;;;;0.30;0.30;;;7.80;99.90;;;;;;5027585;28;20010;-80
2021/11/05 11:01:07;;;;;;;3.80;3.40;;;8.10;99.90;;;;;;5012986;28;20105;-78
2021/11/05 11:03:38;;;;;;;0.30;0.30;;;8.20;99.90;;;;;;5011561;28;20029;-78
2021/11/05 11:06:10;;;;;;;0.63;0.63;;;8.40;99.90;;;;;;5010735;28;20129;-78
2021/11/05 11:08:38;;;;;;;;;;;8.60;99.90;;;;;;5011960;28;20109;-79
2021/11/05 11:11:19;;;;;;;0.20;0.20;;;8.60;99.40;;;;;;5012055;28;20166;-78
2021/11/05 11:13:51;;;;;;;0.20;0.20;;;8.40;99.90;;;;;;5010482;28;20041;-77
2021/11/05 11:16:24;;;;;;;0.30;0.30;;;8.60;99.90;;;;;;5012876;28;20273;-78
2021/11/05 11:18:52;;;;;;;0.20;0.20;;;8.70;99.60;;;;;;5013248;28;21783;-77
2021/11/05 11:21:19;;;;;;;0.35;0.35;;;8.50;99.50;;;;;;5012829;28;20478;-78
2021/11/05 11:23:46;;;;;;;0.20;0.20;;;8.80;99.60;;;;;;5013490;28;20022;-77
2021/11/05 11:26:13;;;;;;;0.32;0.30;;;8.80;98.80;;;;;;5011547;28;20080;-77
2021/11/05 11:28:39;;;;;;;0.60;0.60;;;8.90;97.80;;;;;;5012996;28;20482;-78
2021/11/05 11:31:05;;;;;;;0.20;0.20;;;9.20;98.40;;;;;;5014026;28;20083;-79
2021/11/05 11:33:32;;;;;;;1.15;1.05;;;8.80;97.80;;;;;;5025531;28;20022;-79
2021/11/05 11:35:59;;;;;;;0.40;0.40;;;8.60;98.10;;;;;;5008859;28;20097;-79
2021/11/05 11:38:26;;;;;;;0.75;0.65;;;9.00;97.90;;;;;;5018448;28;20474;-78
2021/11/05 11:40:52;;;;;;;0.28;0.28;;;9.20;97.00;;;;;;5011470;28;20022;-79
2021/11/05 11:43:21;;;;;;;0.20;0.20;;;9.40;97.10;;;;;;5010468;28;20101;-78
2021/11/05 11:45:53;;;;;;;0.40;0.40;;;9.40;95.70;;;;;;5010402;28;20692;-78
2021/11/05 11:48:48;;;;;;;0.20;0.20;;;9.40;96.00;;;;;;5011493;28;20104;-77
2021/11/05 11:51:27;;;;;;;0.20;0.20;;;9.20;96.10;;;;;;5008733;28;20129;-78
2021/11/05 11:53:59;;;;;;;0.28;0.28;;;9.20;96.30;;;;;;5008842;28;20026;-77
2021/11/05 11:56:36;;;;;;;0.20;0.20;;;9.20;96.70;;;;;;5010730;28;20026;-77
2021/11/05 11:59:06;;;;;;;1.50;1.40;;;9.00;96.30;;;;;;5011474;28;20443;-78
2021/11/05 12:01:36;;;;;;;0.90;0.90;;;8.70;96.60;;;;;;5008622;28;20423;-77
2021/11/05 12:04:05;;;;;;;0.20;0.20;;;8.50;97.00;;;;;;5012108;28;20091;-78
2021/11/05 12:06:45;;;;;;;0.50;0.50;;;8.20;97.70;;;;;;5009767;28;20026;-78
2021/11/05 12:09:35;;;;;;;0.10;0.10;;;8.10;98.50;;;;;;5012010;28;20030;-77
2021/11/05 12:12:19;;;;;;;0.40;0.40;;;8.30;99.00;;;;;;5010412;28;20109;-78
2021/11/05 12:15:00;;;;;;;0.20;0.20;;;8.50;98.00;;;;;;5011476;28;20018;-78
2021/11/05 12:17:50;;;;;;;0.40;0.40;;;8.70;97.80;;;;;;5011751;28;20087;-77
2021/11/05 12:20:38;;;;;;;0.20;0.20;;;8.60;97.20;;;;;;5009708;28;20022;-78
2021/11/05 12:23:10;;;;;;;0.20;0.20;;;8.70;98.50;;;;;;5006251;28;20436;-77
2021/11/05 12:25:59;;;;;;;;;;;8.50;97.50;;;;;;5013641;28;20076;-76
2021/11/05 12:28:29;;;;;;;0.20;0.20;;;8.50;97.90;;;;;;5011487;28;20427;-77
2021/11/05 12:31:22;;;;;;;2.80;2.63;;;8.50;98.50;;;;;;5008825;28;20057;-77
2021/11/05 12:33:48;;;;;;;0.90;0.90;;;8.60;97.90;;;;;;5010284;28;20022;-78
2021/11/05 12:36:14;;;;;;;0.20;0.20;;;8.50;97.50;;;;;;5010987;28;20100;-78
2021/11/05 12:39:05;;;;;;;0.20;0.20;;;9.00;98.70;;;;;;5011662;28;20026;-77
2021/11/05 12:41:32;;;;;;;0.28;0.28;;;9.40;97.20;;;;;;5010692;28;20478;-77
2021/11/05 12:44:14;;;;;;;0.63;0.63;;;9.60;96.00;;;;;;5010240;28;20080;-77
2021/11/05 12:46:43;;;;;;;;;;;9.60;95.60;;;;;;5010961;28;20022;-74
2021/11/05 12:49:17;;;;;;;0.43;0.43;;;9.40;95.40;;;;;;5012524;28;19912;-74
2021/11/05 12:51:46;;;;;;;1.05;1.00;;;9.20;95.30;;;;;;5009938;28;20076;-74
2021/11/05 12:54:25;;;;;;;0.30;0.30;;;9.10;95.80;;;;;;5014284;28;20034;-74
2021/11/05 12:56:57;;;;;;;0.32;0.32;;;9.10;95.80;;;;;;5014012;28;20022;-74
2021/11/05 12:59:29;;;;;;;0.35;0.35;;;9.40;95.70;;;;;;5012628;28;20056;-76
2021/11/05 13:02:01;;;;;;;0.20;0.20;;;9.50;94.80;;;;;;5012188;28;20026;-76